Time;durP1;ratioP1;P1;durP2;ratioP2;P2;SDS_P1;SDS_P2;PMS_P1;PMS_P2;Temp;Humidity;BMP_temperature;BMP_pressure;BME280_temperature;BME280_humidity;BME280_pressure;Samples;Min_cycle;Max_cycle;Signal;HPM_P1;HPM_P2
2022/01/11 00:00:41;;;;;;;21.50;11.17;;;1.10;99.90;;;;;;5055694;28;20264;-54
2022/01/11 00:03:08;;;;;;;27.00;11.17;;;1.00;99.90;;;;;;5057551;28;20204;-52
2022/01/11 00:08:32;;;;;;;21.50;10.43;;;0.90;99.90;;;;;;5047209;28;20238;-55
2022/01/11 00:11:04;;;;;;;19.97;11.07;;;0.70;99.90;;;;;;5055811;28;20200;-53
2022/01/11 00:13:37;;;;;;;28.73;11.97;;;0.70;99.90;;;;;;5058721;28;20214;-54
2022/01/11 00:16:05;;;;;;;21.27;10.53;;;0.80;99.90;;;;;;5056489;28;20804;-53
2022/01/11 00:18:33;;;;;;;25.30;11.40;;;0.60;99.90;;;;;;5057292;28;20208;-54
2022/01/11 00:21:00;;;;;;;20.50;10.73;;;0.60;99.90;;;;;;5053637;28;20313;-54
2022/01/11 00:25:56;;;;;;;24.00;12.70;;;1.10;99.90;;;;;;5056011;28;20206;-55
2022/01/11 00:28:25;;;;;;;27.90;11.37;;;1.30;99.90;;;;;;5057851;28;20723;-55
2022/01/11 00:30:53;;;;;;;21.93;11.10;;;1.00;99.90;;;;;;5056864;28;20231;-54
2022/01/11 00:33:29;;;;;;;27.90;12.60;;;1.10;99.90;;;;;;5059360;28;20198;-51
2022/01/11 00:36:00;;;;;;;25.33;11.47;;;1.00;99.90;;;;;;5056357;28;20220;-55
2022/01/11 00:38:31;;;;;;;23.53;11.20;;;0.90;99.90;;;;;;5057477;28;20812;-56
2022/01/11 00:41:01;;;;;;;27.83;11.93;;;0.90;99.90;;;;;;5061591;28;20214;-54
2022/01/11 00:43:29;;;;;;;23.70;11.00;;;0.90;99.90;;;;;;5063418;28;20677;-55
2022/01/11 00:45:57;;;;;;;20.37;11.00;;;0.90;99.90;;;;;;5063035;28;20213;-53
2022/01/11 00:48:25;;;;;;;27.03;12.37;;;1.10;99.90;;;;;;5062818;28;20221;-53
2022/01/11 00:50:52;;;;;;;31.77;13.13;;;1.10;99.90;;;;;;5060271;28;20234;-52
2022/01/11 00:53:20;;;;;;;22.27;11.57;;;1.20;99.90;;;;;;5062221;28;20216;-53
2022/01/11 00:55:47;;;;;;;24.23;12.00;;;1.20;99.90;;;;;;5063082;28;20635;-52
2022/01/11 00:58:16;;;;;;;29.90;12.30;;;1.20;99.90;;;;;;5062776;28;20211;-53
2022/01/11 01:00:44;;;;;;;25.73;11.90;;;1.10;99.90;;;;;;5065817;28;20197;-56
2022/01/11 01:03:11;;;;;;;21.90;11.33;;;1.00;99.90;;;;;;5061895;28;20194;-54
2022/01/11 01:05:38;;;;;;;27.03;12.10;;;1.00;99.90;;;;;;5060904;28;20202;-55
2022/01/11 01:08:06;;;;;;;29.13;11.77;;;0.90;99.90;;;;;;5060505;28;20224;-54
2022/01/11 01:10:39;;;;;;;27.10;12.43;;;1.10;99.90;;;;;;5063490;28;20197;-53
2022/01/11 01:13:14;;;;;;;34.07;14.03;;;1.30;99.90;;;;;;5062006;28;20549;-53
2022/01/11 01:15:42;;;;;;;28.17;12.27;;;1.20;99.90;;;;;;5061383;28;20204;-55
2022/01/11 01:18:14;;;;;;;25.90;12.90;;;1.30;99.90;;;;;;5061466;28;20270;-54
2022/01/11 01:20:41;;;;;;;25.70;12.57;;;1.40;99.90;;;;;;5060683;28;20616;-53
2022/01/11 01:23:08;;;;;;;26.97;11.47;;;1.30;99.90;;;;;;5061667;28;20964;-51
2022/01/11 01:25:35;;;;;;;28.23;13.13;;;1.40;99.90;;;;;;5061746;28;20257;-55
2022/01/11 01:28:02;;;;;;;27.60;12.53;;;1.40;99.90;;;;;;5061649;28;20291;-52
2022/01/11 01:30:29;;;;;;;28.20;12.93;;;1.40;99.90;;;;;;5060788;28;20237;-55
2022/01/11 01:32:56;;;;;;;26.37;12.70;;;1.50;99.90;;;;;;5060644;28;20210;-53
2022/01/11 01:35:27;;;;;;;30.10;13.23;;;1.40;99.90;;;;;;5059604;28;20204;-57
2022/01/11 01:37:54;;;;;;;31.63;14.37;;;1.30;99.90;;;;;;5061440;28;20245;-53
2022/01/11 01:40:21;;;;;;;25.37;12.33;;;1.40;99.90;;;;;;5059746;28;20309;-53
2022/01/11 01:42:49;;;;;;;31.13;13.73;;;1.40;99.90;;;;;;5061551;28;20202;-55
2022/01/11 01:45:16;;;;;;;25.23;12.30;;;1.50;99.90;;;;;;5059933;28;20208;-53
2022/01/11 01:47:44;;;;;;;30.40;13.57;;;1.30;99.90;;;;;;5060156;28;20743;-54
2022/01/11 01:50:11;;;;;;;33.17;13.83;;;1.40;99.90;;;;;;5059278;28;20196;-53
2022/01/11 01:52:38;;;;;;;34.27;14.70;;;1.60;99.90;;;;;;5058657;28;20209;-53
2022/01/11 01:55:06;;;;;;;27.47;12.93;;;1.40;99.90;;;;;;5060083;28;20238;-55
2022/01/11 01:57:33;;;;;;;35.20;14.27;;;1.40;99.90;;;;;;5060822;28;20663;-55
2022/01/11 02:00:07;;;;;;;29.07;13.90;;;1.60;99.90;;;;;;5060326;28;20202;-55
2022/01/11 02:02:36;;;;;;;31.13;13.03;;;1.60;99.90;;;;;;5076782;28;20294;-53
2022/01/11 02:05:06;;;;;;;33.27;15.33;;;1.60;99.90;;;;;;5060336;28;20202;-54
2022/01/11 02:07:34;;;;;;;28.73;14.23;;;1.30;99.90;;;;;;5060464;28;20263;-56
2022/01/11 02:10:05;;;;;;;25.93;12.53;;;1.30;99.90;;;;;;5059337;28;20905;-54
2022/01/11 02:12:33;;;;;;;26.97;13.13;;;1.10;99.90;;;;;;5061430;28;20539;-53
2022/01/11 02:15:01;;;;;;;32.40;14.60;;;1.10;99.90;;;;;;5060250;28;20218;-53
2022/01/11 02:17:29;;;;;;;29.20;14.00;;;1.40;99.90;;;;;;5059189;28;20722;-53
2022/01/11 02:19:56;;;;;;;32.93;14.60;;;1.60;99.90;;;;;;5058892;28;20306;-53
2022/01/11 02:22:24;;;;;;;30.13;15.50;;;1.60;99.90;;;;;;5059731;28;20206;-52
2022/01/11 02:24:52;;;;;;;32.47;14.13;;;1.50;99.90;;;;;;5059887;28;20234;-52
2022/01/11 02:27:19;;;;;;;32.10;14.13;;;1.20;99.90;;;;;;5077137;28;20242;-61
2022/01/11 02:29:47;;;;;;;37.33;14.20;;;1.10;99.90;;;;;;5060350;28;20203;-53
2022/01/11 02:32:14;;;;;;;29.73;13.53;;;1.30;99.90;;;;;;5056969;28;20193;-53
2022/01/11 02:34:41;;;;;;;32.40;13.70;;;1.50;99.90;;;;;;5055997;28;20544;-53
2022/01/11 02:37:08;;;;;;;33.53;14.73;;;1.60;99.90;;;;;;5057534;28;20294;-57
2022/01/11 02:39:35;;;;;;;33.77;14.87;;;1.60;99.90;;;;;;5060135;28;20235;-58
2022/01/11 02:42:02;;;;;;;30.30;14.63;;;1.60;99.90;;;;;;5060275;28;20208;-58
2022/01/11 02:44:29;;;;;;;31.10;14.00;;;1.40;99.90;;;;;;5057721;28;20288;-56
2022/01/11 02:46:56;;;;;;;37.00;13.73;;;1.60;99.90;;;;;;5059781;28;20201;-58
2022/01/11 02:49:23;;;;;;;30.80;14.00;;;1.50;99.90;;;;;;5059867;28;20654;-58
2022/01/11 02:51:50;;;;;;;32.83;15.27;;;1.40;99.90;;;;;;5057364;28;20200;-57
2022/01/11 02:54:17;;;;;;;32.97;13.80;;;1.20;99.90;;;;;;5059964;28;20205;-58
2022/01/11 02:56:44;;;;;;;32.07;14.60;;;1.10;99.90;;;;;;5075511;28;20229;-60
2022/01/11 02:59:11;;;;;;;35.13;16.17;;;1.10;99.90;;;;;;5059901;28;20206;-58
2022/01/11 03:01:38;;;;;;;36.93;15.90;;;1.30;99.90;;;;;;5058503;28;20233;-57
2022/01/11 03:04:05;;;;;;;31.83;15.30;;;1.40;99.90;;;;;;5057073;28;20216;-57
2022/01/11 03:06:32;;;;;;;32.13;14.13;;;1.40;99.90;;;;;;5059068;28;20213;-58
2022/01/11 03:08:59;;;;;;;35.43;15.63;;;1.40;99.90;;;;;;5059899;28;20245;-56
2022/01/11 03:11:33;;;;;;;35.57;14.60;;;1.50;99.90;;;;;;5060811;28;20259;-57
2022/01/11 03:14:02;;;;;;;40.70;16.13;;;1.50;99.90;;;;;;5060673;28;20205;-57
2022/01/11 03:16:29;;;;;;;34.10;15.63;;;1.60;99.90;;;;;;5064029;28;20225;-58
2022/01/11 03:18:57;;;;;;;34.67;14.83;;;1.60;99.90;;;;;;5057775;28;20197;-59
2022/01/11 03:21:26;;;;;;;35.17;15.93;;;1.40;99.90;;;;;;5058895;28;20207;-59
2022/01/11 03:23:53;;;;;;;32.13;15.23;;;1.30;99.90;;;;;;5059379;28;20207;-59
2022/01/11 03:26:20;;;;;;;34.23;15.07;;;1.40;99.90;;;;;;5059667;28;20224;-58
2022/01/11 03:28:47;;;;;;;30.87;15.23;;;1.30;99.90;;;;;;5058942;28;20247;-58
2022/01/11 03:31:14;;;;;;;38.87;16.33;;;1.30;99.90;;;;;;5056989;28;20205;-59
2022/01/11 03:33:41;;;;;;;34.73;14.33;;;1.30;99.90;;;;;;5057802;28;20197;-59
2022/01/11 03:36:08;;;;;;;38.70;16.87;;;1.30;99.90;;;;;;5054096;28;20971;-59
2022/01/11 03:38:36;;;;;;;33.50;14.07;;;1.40;99.90;;;;;;5058331;28;20329;-59
2022/01/11 03:41:03;;;;;;;34.20;15.00;;;1.50;99.90;;;;;;5060785;28;20304;-59
2022/01/11 03:43:30;;;;;;;33.93;15.33;;;1.50;99.90;;;;;;5058847;28;20268;-57
2022/01/11 03:45:57;;;;;;;38.13;15.93;;;1.40;99.90;;;;;;5057697;28;20211;-59
2022/01/11 03:48:24;;;;;;;35.13;15.83;;;1.40;99.90;;;;;;5058092;28;20223;-58
2022/01/11 03:50:55;;;;;;;32.73;14.57;;;1.20;99.90;;;;;;5055336;28;20206;-61
2022/01/11 03:53:32;;;;;;;32.00;14.63;;;1.10;99.90;;;;;;5059724;28;20848;-57
2022/01/11 03:56:11;;;;;;;31.07;15.90;;;1.00;99.90;;;;;;5058686;28;20623;-62
2022/01/11 03:58:38;;;;;;;37.13;16.33;;;1.10;99.90;;;;;;5057742;28;20230;-58
2022/01/11 04:01:05;;;;;;;35.07;16.17;;;1.20;99.90;;;;;;5058361;28;20203;-58
2022/01/11 04:03:32;;;;;;;33.23;14.57;;;1.20;99.90;;;;;;5058938;28;20207;-57
2022/01/11 04:05:59;;;;;;;32.97;15.10;;;1.30;99.90;;;;;;5058087;28;20202;-58
2022/01/11 04:08:26;;;;;;;31.70;15.53;;;1.40;99.90;;;;;;5058275;28;20289;-57
2022/01/11 04:10:54;;;;;;;31.20;14.67;;;1.20;99.90;;;;;;5074583;28;20225;-57
2022/01/11 04:13:21;;;;;;;33.00;13.83;;;1.20;99.90;;;;;;5058119;28;20297;-58
2022/01/11 04:15:48;;;;;;;30.70;13.93;;;1.40;99.90;;;;;;5059174;28;20342;-58
2022/01/11 04:18:15;;;;;;;31.57;15.17;;;1.40;99.90;;;;;;5056714;28;20205;-56
2022/01/11 04:20:41;;;;;;;33.93;15.27;;;1.40;99.90;;;;;;5056926;28;20672;-58
2022/01/11 04:23:12;;;;;;;32.63;15.60;;;1.50;99.90;;;;;;5058023;28;20213;-59
2022/01/11 04:25:39;;;;;;;32.47;15.23;;;1.30;99.90;;;;;;5057874;28;20320;-59
2022/01/11 04:28:06;;;;;;;33.93;14.70;;;1.30;99.90;;;;;;5074076;28;20230;-59
2022/01/11 04:30:34;;;;;;;29.57;12.83;;;1.20;99.90;;;;;;5058034;28;20204;-59
2022/01/11 04:33:02;;;;;;;26.30;13.70;;;1.30;99.90;;;;;;5058349;28;20610;-60
2022/01/11 04:35:29;;;;;;;27.83;13.80;;;1.20;99.90;;;;;;5058190;28;20665;-57
2022/01/11 04:37:56;;;;;;;30.17;14.90;;;1.10;99.90;;;;;;5058241;28;20242;-60
2022/01/11 04:40:24;;;;;;;30.60;13.70;;;1.00;99.90;;;;;;5057591;28;20197;-59
2022/01/11 04:42:51;;;;;;;30.57;13.37;;;1.10;99.90;;;;;;5058475;28;20255;-61
2022/01/11 04:45:18;;;;;;;30.47;14.00;;;1.10;99.90;;;;;;5057894;28;20665;-60
2022/01/11 04:47:46;;;;;;;32.83;14.63;;;1.00;99.90;;;;;;5058756;28;20232;-60
2022/01/11 04:50:13;;;;;;;30.80;13.87;;;1.00;99.90;;;;;;5057378;28;20226;-57
2022/01/11 04:52:40;;;;;;;29.10;13.73;;;0.90;99.90;;;;;;5057099;28;20680;-57
2022/01/11 04:55:08;;;;;;;29.90;14.67;;;1.20;99.90;;;;;;5056261;28;20610;-57
2022/01/11 04:57:43;;;;;;;31.43;14.10;;;1.10;99.90;;;;;;5063462;28;20762;-58
2022/01/11 05:00:12;;;;;;;29.90;14.23;;;1.20;99.90;;;;;;5057410;28;20240;-58
2022/01/11 05:02:39;;;;;;;30.03;14.60;;;1.00;99.90;;;;;;5056182;28;20646;-57
2022/01/11 05:05:06;;;;;;;28.03;13.50;;;1.00;99.90;;;;;;5055365;28;20211;-58
2022/01/11 05:07:33;;;;;;;32.90;16.77;;;1.10;99.90;;;;;;5058995;28;20366;-57
2022/01/11 05:10:00;;;;;;;28.13;13.80;;;1.30;99.90;;;;;;5055427;28;20248;-57
2022/01/11 05:12:27;;;;;;;30.23;14.00;;;1.10;99.90;;;;;;5057748;28;20671;-60
2022/01/11 05:14:54;;;;;;;29.47;14.33;;;1.30;99.90;;;;;;5056392;28;20203;-59
2022/01/11 05:17:21;;;;;;;29.80;13.53;;;1.10;99.90;;;;;;5059045;28;20200;-59
2022/01/11 05:19:48;;;;;;;27.60;13.97;;;1.10;99.90;;;;;;5055206;28;21097;-59
2022/01/11 05:22:15;;;;;;;29.43;12.83;;;1.10;99.90;;;;;;5058413;28;20588;-59
2022/01/11 05:24:42;;;;;;;27.20;13.43;;;1.00;99.90;;;;;;5055443;28;20232;-62
2022/01/11 05:27:09;;;;;;;28.93;14.47;;;1.10;99.90;;;;;;5058954;28;20305;-60
2022/01/11 05:29:36;;;;;;;27.30;13.87;;;1.30;99.90;;;;;;5062618;28;21596;-60
2022/01/11 05:32:03;;;;;;;29.70;14.53;;;1.30;99.90;;;;;;5062630;28;20303;-57
2022/01/11 05:34:30;;;;;;;29.90;13.57;;;1.30;99.90;;;;;;5061239;28;20595;-58
2022/01/11 05:36:56;;;;;;;29.67;13.33;;;1.50;99.90;;;;;;5061004;28;20652;-57
2022/01/11 05:39:24;;;;;;;27.93;13.47;;;1.50;99.90;;;;;;5061323;28;20651;-57
2022/01/11 05:41:51;;;;;;;25.30;12.73;;;1.50;99.90;;;;;;5059691;28;20279;-57
2022/01/11 05:44:21;;;;;;;26.10;12.30;;;1.10;99.90;;;;;;5060481;28;20611;-57
2022/01/11 05:46:48;;;;;;;25.97;12.57;;;1.10;99.90;;;;;;5061593;28;20648;-57
2022/01/11 05:49:15;;;;;;;27.80;12.63;;;1.20;99.90;;;;;;5059109;28;20550;-58
2022/01/11 05:51:42;;;;;;;26.27;12.20;;;1.30;99.90;;;;;;5067267;28;20288;-58
2022/01/11 05:54:09;;;;;;;25.70;12.67;;;1.40;99.90;;;;;;5061054;28;20622;-56
2022/01/11 05:56:36;;;;;;;24.60;12.30;;;1.40;99.90;;;;;;5060661;28;20200;-56
2022/01/11 05:59:03;;;;;;;23.27;12.77;;;1.30;99.90;;;;;;5059342;28;20331;-57
2022/01/11 06:01:32;;;;;;;24.03;12.23;;;1.00;99.90;;;;;;5061480;28;21030;-57
2022/01/11 06:03:59;;;;;;;29.33;13.17;;;1.10;99.90;;;;;;5074829;28;20771;-57
2022/01/11 06:06:26;;;;;;;26.10;13.00;;;1.00;99.90;;;;;;5061600;28;20205;-58
2022/01/11 06:08:56;;;;;;;23.37;11.00;;;1.10;99.90;;;;;;5058721;28;20841;-58
2022/01/11 06:11:23;;;;;;;25.30;13.27;;;1.00;99.90;;;;;;5058701;28;20620;-57
2022/01/11 06:13:51;;;;;;;25.80;12.83;;;1.20;99.90;;;;;;5066107;28;20680;-58
2022/01/11 06:16:20;;;;;;;23.90;12.47;;;1.10;99.90;;;;;;5062513;28;20278;-60
2022/01/11 06:18:48;;;;;;;23.07;12.10;;;1.00;99.90;;;;;;5059827;28;20196;-56
2022/01/11 06:21:14;;;;;;;22.97;12.07;;;1.00;99.90;;;;;;5060790;28;20262;-59
2022/01/11 06:23:41;;;;;;;23.10;11.73;;;1.10;99.90;;;;;;5061664;28;20840;-57
2022/01/11 06:26:08;;;;;;;28.60;12.80;;;1.10;99.90;;;;;;5061536;28;20214;-58
2022/01/11 06:28:35;;;;;;;25.60;13.37;;;1.20;99.90;;;;;;5061489;28;20206;-58
2022/01/11 06:31:02;;;;;;;25.43;13.00;;;1.30;99.90;;;;;;5058174;28;20230;-58
2022/01/11 06:33:29;;;;;;;24.00;11.90;;;1.30;99.90;;;;;;5059829;28;20210;-58
2022/01/11 06:35:56;;;;;;;24.73;12.40;;;1.30;99.90;;;;;;5059391;28;20592;-58
2022/01/11 06:38:23;;;;;;;20.93;11.17;;;1.40;99.90;;;;;;5057463;28;20323;-59
2022/01/11 06:40:50;;;;;;;26.43;12.90;;;1.20;99.90;;;;;;5059897;28;20205;-57
2022/01/11 06:43:16;;;;;;;25.00;13.63;;;1.20;99.90;;;;;;5054644;28;20287;-58
2022/01/11 06:45:43;;;;;;;24.17;11.43;;;1.40;99.90;;;;;;5058006;28;20294;-58
2022/01/11 06:48:11;;;;;;;22.50;12.23;;;1.40;99.90;;;;;;5057561;28;20244;-57
2022/01/11 06:50:37;;;;;;;21.70;11.27;;;1.10;99.90;;;;;;5057464;28;20620;-58
2022/01/11 06:53:05;;;;;;;22.87;12.93;;;1.10;99.90;;;;;;5057731;28;20206;-57
2022/01/11 06:55:31;;;;;;;24.50;12.03;;;1.00;99.90;;;;;;5058951;28;20237;-58
2022/01/11 06:58:03;;;;;;;23.00;12.50;;;1.20;99.90;;;;;;5060637;28;20301;-59
2022/01/11 07:00:30;;;;;;;24.13;12.87;;;1.30;99.90;;;;;;5052815;28;20217;-59
2022/01/11 07:02:57;;;;;;;26.27;12.60;;;1.30;99.90;;;;;;5059681;28;20197;-60
2022/01/11 07:05:25;;;;;;;28.50;13.17;;;1.40;99.90;;;;;;5058881;28;20648;-59
2022/01/11 07:07:52;;;;;;;25.37;13.53;;;1.30;99.90;;;;;;5059596;28;21033;-59
2022/01/11 07:10:19;;;;;;;25.40;12.47;;;1.30;99.90;;;;;;5060924;28;20230;-57
2022/01/11 07:12:47;;;;;;;26.13;12.27;;;1.30;99.90;;;;;;5058895;28;20206;-59
2022/01/11 07:15:14;;;;;;;25.10;12.60;;;1.40;99.90;;;;;;5058939;28;20611;-58
2022/01/11 07:17:42;;;;;;;27.33;13.07;;;1.40;99.90;;;;;;5062253;28;20642;-55
2022/01/11 07:20:10;;;;;;;26.73;13.47;;;1.30;99.90;;;;;;5059551;28;20245;-59
2022/01/11 07:22:37;;;;;;;24.77;12.53;;;1.40;99.90;;;;;;5059529;28;20228;-58
2022/01/11 07:25:05;;;;;;;25.13;13.07;;;1.20;99.90;;;;;;5057324;28;20211;-58
2022/01/11 07:27:33;;;;;;;27.73;14.40;;;1.10;99.90;;;;;;5058541;28;20835;-57
2022/01/11 07:30:03;;;;;;;26.97;12.83;;;1.20;99.90;;;;;;5056209;28;20727;-57
2022/01/11 07:32:31;;;;;;;24.63;12.20;;;1.30;99.90;;;;;;5054107;28;20206;-56
2022/01/11 07:34:58;;;;;;;30.83;14.03;;;1.10;99.90;;;;;;5052523;28;20283;-58
2022/01/11 07:37:25;;;;;;;26.63;12.53;;;1.10;99.90;;;;;;5059987;28;20225;-57
2022/01/11 07:39:53;;;;;;;25.07;12.80;;;1.20;99.90;;;;;;5055421;28;20588;-57
2022/01/11 07:42:20;;;;;;;26.23;13.07;;;1.30;99.90;;;;;;5057933;28;20206;-56
2022/01/11 07:44:50;;;;;;;27.27;13.43;;;1.50;99.90;;;;;;5055294;28;20270;-57
2022/01/11 07:47:19;;;;;;;25.57;13.30;;;1.50;99.90;;;;;;5056663;28;20204;-57
2022/01/11 07:49:47;;;;;;;25.97;12.17;;;1.50;99.90;;;;;;5053494;28;22515;-57
2022/01/11 07:52:15;;;;;;;25.47;11.70;;;1.30;99.90;;;;;;5053264;28;20293;-57
2022/01/11 07:54:41;;;;;;;25.67;12.73;;;1.40;99.90;;;;;;5050192;28;20206;-59
2022/01/11 07:57:08;;;;;;;23.53;12.10;;;1.40;99.90;;;;;;5049192;28;20744;-56
2022/01/11 07:59:35;;;;;;;23.37;12.00;;;1.20;99.90;;;;;;5056090;28;20625;-57
2022/01/11 08:02:19;;;;;;;20.03;11.80;;;1.30;99.90;;;;;;5049410;28;20213;-58
2022/01/11 08:04:46;;;;;;;25.43;12.33;;;1.30;99.90;;;;;;5050499;28;20817;-57
2022/01/11 08:07:13;;;;;;;22.97;12.17;;;1.40;99.90;;;;;;5052241;28;20223;-60
2022/01/11 08:09:40;;;;;;;25.73;12.10;;;1.60;99.90;;;;;;5053715;28;20222;-59
2022/01/11 08:12:07;;;;;;;26.37;12.47;;;1.60;99.90;;;;;;5051845;28;20283;-59
2022/01/11 08:14:34;;;;;;;26.73;12.90;;;1.20;99.90;;;;;;5052880;28;20211;-58
2022/01/11 08:17:01;;;;;;;27.60;12.20;;;1.30;99.90;;;;;;5055524;28;20268;-58
2022/01/11 08:19:28;;;;;;;20.30;11.00;;;1.30;99.90;;;;;;5051682;28;20208;-58
2022/01/11 08:21:56;;;;;;;20.60;13.03;;;1.50;99.90;;;;;;5054779;28;20203;-56
2022/01/11 08:24:23;;;;;;;27.43;12.47;;;1.60;99.90;;;;;;5054462;28;20653;-57
2022/01/11 08:26:53;;;;;;;21.43;11.43;;;1.40;99.90;;;;;;5052230;28;20203;-57
2022/01/11 08:29:22;;;;;;;20.90;11.03;;;1.40;99.90;;;;;;5055379;28;20280;-58
2022/01/11 08:31:50;;;;;;;23.77;12.93;;;1.60;99.90;;;;;;5056367;28;20619;-59
2022/01/11 08:34:17;;;;;;;23.07;11.20;;;1.90;99.90;;;;;;5056255;28;20671;-58
2022/01/11 08:36:48;;;;;;;26.57;12.20;;;1.70;99.90;;;;;;5055186;28;20620;-57
2022/01/11 08:39:16;;;;;;;19.90;10.57;;;1.70;99.90;;;;;;5055650;28;20384;-59
2022/01/11 08:41:43;;;;;;;22.83;11.20;;;1.50;99.90;;;;;;5055326;28;20223;-59
2022/01/11 08:44:10;;;;;;;23.60;11.43;;;1.60;99.90;;;;;;5056609;28;20199;-58
2022/01/11 08:46:40;;;;;;;18.53;11.00;;;1.80;99.90;;;;;;5056188;28;20314;-57
2022/01/11 08:49:08;;;;;;;20.43;10.73;;;2.00;99.90;;;;;;5057610;28;20199;-57
2022/01/11 08:51:35;;;;;;;22.30;12.00;;;2.20;99.90;;;;;;5055685;28;20211;-57
2022/01/11 08:54:02;;;;;;;18.17;10.17;;;2.10;99.90;;;;;;5054327;28;20215;-59
2022/01/11 08:56:30;;;;;;;19.53;10.33;;;2.10;99.90;;;;;;5052449;28;20303;-59
2022/01/11 08:58:57;;;;;;;18.00;9.87;;;2.30;99.90;;;;;;5056521;28;20605;-58
2022/01/11 09:01:28;;;;;;;21.07;11.10;;;2.30;99.90;;;;;;5057998;28;20234;-58
2022/01/11 09:03:55;;;;;;;21.70;10.60;;;2.30;99.90;;;;;;5059649;28;20208;-57
2022/01/11 09:06:22;;;;;;;23.70;10.60;;;2.10;99.90;;;;;;5058527;28;20264;-59
2022/01/11 09:09:09;;;;;;;18.50;9.63;;;2.10;99.90;;;;;;5058596;28;20261;-57
2022/01/11 09:11:36;;;;;;;20.23;10.37;;;2.30;99.90;;;;;;5060875;28;20207;-57
2022/01/11 09:14:03;;;;;;;18.97;10.47;;;2.30;99.90;;;;;;5061154;28;20229;-58
2022/01/11 09:16:30;;;;;;;15.33;9.63;;;2.10;99.90;;;;;;5061361;28;20230;-57
2022/01/11 09:18:57;;;;;;;17.83;10.27;;;2.00;99.90;;;;;;5059566;28;20206;-56
2022/01/11 09:21:24;;;;;;;19.17;10.30;;;2.10;99.90;;;;;;5054978;28;20296;-58
2022/01/11 09:23:52;;;;;;;17.30;9.60;;;2.10;99.90;;;;;;5060355;28;20207;-58
2022/01/11 09:26:19;;;;;;;17.23;9.83;;;2.10;99.90;;;;;;5058069;28;20234;-61
2022/01/11 09:28:46;;;;;;;20.20;10.83;;;2.20;99.90;;;;;;5076265;28;20187;-56
2022/01/11 09:31:13;;;;;;;16.33;9.10;;;2.30;99.90;;;;;;5057156;28;20733;-57
2022/01/11 09:33:40;;;;;;;18.50;10.10;;;2.40;99.90;;;;;;5057013;28;20218;-58
2022/01/11 09:36:07;;;;;;;18.67;9.47;;;2.50;99.90;;;;;;5048958;28;20334;-58
2022/01/11 09:38:34;;;;;;;15.67;8.87;;;2.50;99.90;;;;;;5058208;28;20280;-58
2022/01/11 09:41:02;;;;;;;17.53;10.03;;;2.60;99.90;;;;;;5060357;28;20210;-56
2022/01/11 09:43:29;;;;;;;15.87;9.40;;;2.40;99.90;;;;;;5060609;28;20218;-59
2022/01/11 09:45:57;;;;;;;19.33;9.53;;;2.30;99.90;;;;;;5056642;28;21088;-56
2022/01/11 09:48:28;;;;;;;17.17;9.13;;;2.20;99.90;;;;;;5055593;28;20203;-55
2022/01/11 09:50:56;;;;;;;18.30;9.63;;;2.40;99.90;;;;;;5057240;28;20212;-58
2022/01/11 09:53:23;;;;;;;16.83;9.23;;;2.30;99.90;;;;;;5060425;28;20229;-58
2022/01/11 09:55:50;;;;;;;18.80;9.20;;;2.30;99.90;;;;;;5062580;28;20207;-57
2022/01/11 09:58:17;;;;;;;17.60;9.23;;;2.40;99.90;;;;;;5059202;28;20226;-59
2022/01/11 10:00:44;;;;;;;14.77;8.90;;;2.50;99.90;;;;;;5060676;28;20270;-57
2022/01/11 10:03:14;;;;;;;18.77;9.53;;;2.80;99.90;;;;;;5049471;28;20326;-57
2022/01/11 10:05:45;;;;;;;16.23;9.00;;;2.90;99.90;;;;;;5056401;28;20735;-58
2022/01/11 10:08:19;;;;;;;16.10;8.70;;;3.00;99.90;;;;;;5057070;28;20298;-58
2022/01/11 10:10:48;;;;;;;17.67;9.20;;;3.10;99.90;;;;;;5058317;28;20317;-59
2022/01/11 10:13:32;;;;;;;15.10;8.17;;;3.00;99.90;;;;;;5058955;28;20199;-55
2022/01/11 10:16:20;;;;;;;16.67;8.70;;;3.10;99.90;;;;;;5062278;28;20264;-58
2022/01/11 10:18:49;;;;;;;15.03;9.33;;;2.90;99.90;;;;;;5058468;28;20200;-57
2022/01/11 10:21:37;;;;;;;16.07;9.03;;;3.10;99.90;;;;;;5058472;28;20204;-57
2022/01/11 10:24:35;;;;;;;16.63;8.83;;;3.10;99.90;;;;;;5057434;28;20207;-56
2022/01/11 10:27:13;;;;;;;14.10;8.20;;;3.10;99.90;;;;;;5057261;28;20203;-58
2022/01/11 10:29:47;;;;;;;17.00;8.80;;;3.10;99.90;;;;;;5056025;28;20202;-58
2022/01/11 10:32:27;;;;;;;17.10;8.60;;;2.90;99.90;;;;;;5059806;28;20200;-58
2022/01/11 10:34:57;;;;;;;16.57;9.20;;;3.00;99.90;;;;;;5056575;28;20282;-58
2022/01/11 10:37:37;;;;;;;14.80;9.00;;;3.00;99.90;;;;;;5058893;28;20260;-58
2022/01/11 10:40:08;;;;;;;12.20;8.07;;;3.10;99.90;;;;;;5059702;28;20202;-58
2022/01/11 10:42:38;;;;;;;18.40;8.67;;;3.00;99.90;;;;;;5059290;28;20211;-56
2022/01/11 10:45:14;;;;;;;15.57;9.00;;;3.10;99.90;;;;;;5057643;28;20210;-57
2022/01/11 10:47:47;;;;;;;16.90;7.70;;;3.00;99.90;;;;;;5058275;28;20264;-58
2022/01/11 10:50:34;;;;;;;16.30;7.90;;;3.20;99.90;;;;;;5056651;28;20227;-58
2022/01/11 10:53:06;;;;;;;14.43;7.87;;;3.20;99.90;;;;;;5056412;28;21239;-58
2022/01/11 10:55:34;;;;;;;13.80;7.90;;;3.20;99.90;;;;;;5057185;28;20204;-57
2022/01/11 10:58:22;;;;;;;16.00;8.50;;;3.20;99.90;;;;;;5057826;28;20298;-58
2022/01/11 11:00:52;;;;;;;16.37;8.30;;;3.20;99.90;;;;;;5058161;28;20829;-58
2022/01/11 11:03:24;;;;;;;14.33;8.77;;;3.30;99.90;;;;;;5059466;28;20211;-59
2022/01/11 11:05:59;;;;;;;18.00;8.33;;;3.20;99.90;;;;;;5057335;28;20229;-57
2022/01/11 11:08:33;;;;;;;11.97;7.80;;;3.20;99.90;;;;;;5058695;28;20227;-59
2022/01/11 11:11:03;;;;;;;16.30;8.30;;;3.40;99.90;;;;;;5056291;28;20234;-57
2022/01/11 11:13:34;;;;;;;18.07;8.23;;;3.30;99.90;;;;;;5075490;28;20783;-57
2022/01/11 11:16:16;;;;;;;13.40;7.27;;;3.50;99.90;;;;;;5057340;28;20242;-58
2022/01/11 11:18:57;;;;;;;14.03;7.80;;;3.70;99.90;;;;;;5057458;28;20187;-57
2022/01/11 11:21:37;;;;;;;20.23;9.87;;;3.70;99.90;;;;;;5054085;28;20302;-57
2022/01/11 11:24:14;;;;;;;11.70;7.30;;;3.50;99.90;;;;;;5055442;28;20560;-55
2022/01/11 11:26:51;;;;;;;13.93;8.77;;;3.30;99.90;;;;;;5056941;28;20268;-55
2022/01/11 11:29:22;;;;;;;17.17;7.70;;;3.40;99.90;;;;;;5053647;28;20256;-57
2022/01/11 11:32:09;;;;;;;13.87;7.13;;;3.40;99.90;;;;;;5069916;28;20204;-57
2022/01/11 11:34:37;;;;;;;12.67;7.67;;;3.60;99.90;;;;;;5053048;28;20201;-59
2022/01/11 11:37:07;;;;;;;14.13;7.40;;;3.90;99.90;;;;;;5060483;28;20634;-56
2022/01/11 11:39:35;;;;;;;13.50;7.43;;;3.90;99.90;;;;;;5052680;28;20236;-55
2022/01/11 11:42:04;;;;;;;12.87;7.40;;;3.90;99.90;;;;;;5056204;28;20635;-57
2022/01/11 11:44:37;;;;;;;12.47;6.87;;;4.00;99.90;;;;;;5057360;28;20948;-58
2022/01/11 11:47:06;;;;;;;12.73;7.43;;;3.90;99.90;;;;;;5057125;28;20200;-56
2022/01/11 11:49:49;;;;;;;10.50;6.80;;;4.10;99.90;;;;;;5057032;28;20845;-55
2022/01/11 11:52:37;;;;;;;12.80;7.17;;;4.20;99.90;;;;;;5070492;28;20204;-56
2022/01/11 11:55:25;;;;;;;13.73;6.97;;;4.10;99.90;;;;;;5056106;28;20203;-58
2022/01/11 11:57:57;;;;;;;11.87;7.03;;;4.10;99.90;;;;;;5056756;28;20203;-57
2022/01/11 12:00:28;;;;;;;12.33;6.40;;;4.10;99.90;;;;;;5057291;28;20241;-58
2022/01/11 12:02:57;;;;;;;12.17;6.60;;;4.20;99.90;;;;;;5057734;28;20203;-56
2022/01/11 12:05:39;;;;;;;10.30;6.20;;;4.20;99.90;;;;;;5069883;28;20211;-56
2022/01/11 12:08:30;;;;;;;11.17;6.47;;;4.30;99.90;;;;;;5071037;28;20213;-57
2022/01/11 12:11:03;;;;;;;12.73;7.07;;;4.30;99.90;;;;;;5056456;28;20210;-57
2022/01/11 12:13:50;;;;;;;12.57;6.37;;;4.30;99.90;;;;;;5059888;28;20744;-57
2022/01/11 12:16:26;;;;;;;12.97;6.53;;;4.50;99.90;;;;;;5052459;28;20394;-57
2022/01/11 12:18:54;;;;;;;15.00;6.90;;;4.60;99.90;;;;;;5057653;28;20202;-55
2022/01/11 12:21:22;;;;;;;12.03;6.23;;;4.40;99.90;;;;;;5055237;28;20233;-56
2022/01/11 12:23:57;;;;;;;13.90;6.70;;;4.40;99.90;;;;;;5056828;28;20318;-57
2022/01/11 12:26:30;;;;;;;13.23;7.03;;;4.40;99.90;;;;;;5049047;28;20264;-57
2022/01/11 12:29:10;;;;;;;10.47;5.63;;;4.50;99.90;;;;;;5056651;28;20221;-59
2022/01/11 12:31:54;;;;;;;11.23;5.87;;;4.60;99.90;;;;;;5058801;28;20273;-56
2022/01/11 12:34:46;;;;;;;12.13;6.13;;;4.70;99.90;;;;;;5056140;28;20290;-55
2022/01/11 12:37:28;;;;;;;11.77;6.27;;;4.80;99.90;;;;;;5061285;28;20251;-57
2022/01/11 12:40:09;;;;;;;12.80;5.70;;;4.80;99.90;;;;;;5060858;28;20641;-58
2022/01/11 12:42:38;;;;;;;10.30;6.30;;;4.80;99.90;;;;;;5060484;28;20731;-57
2022/01/11 12:47:44;;;;;;;11.00;6.70;;;4.70;99.90;;;;;;5059458;28;20566;-58
2022/01/11 12:50:14;;;;;;;11.27;5.80;;;4.90;99.90;;;;;;5060534;28;20195;-57
2022/01/11 12:52:41;;;;;;;10.63;6.10;;;4.70;99.90;;;;;;5060046;28;20243;-55
2022/01/11 12:55:10;;;;;;;10.67;6.43;;;4.90;99.90;;;;;;5056797;28;20648;-57
2022/01/11 12:57:38;;;;;;;14.47;6.63;;;5.00;99.90;;;;;;5059581;28;20279;-56
2022/01/11 13:00:19;;;;;;;12.43;6.40;;;5.00;99.90;;;;;;5057023;28;20657;-55